Rodney, Canada
Current Conditions -  °F | °C
As of 5:00 AM on Tuesday 21 Oct 2014 (Local Time) from CYCK Reporting Station
Overcast Overcast  
Wind Chill: 45°   Ceiling: 900
Heat Index: 48°   Visibility: 9mi
Dew Point: 46°   Wind: 8mph
Humidity: 93%   Direction: 330°NNW
Pressure: 29.86"   Gusts: NA
Location:  42.57°N, 81.68°W
Report Text: CYCK 210900Z AUTO 33007KT 9SM BKN009 OVC021 09/08 A2986 RMK SLP113
Loading
Personal Weather Stations






























Interactive Weather Map
Tropical Storm Tracking
New forecast layout! Learn more

10-Day Weather Forecast

Advertisements
Track Severe Weather on mobile